Station Historical Data
Daily Summary for January 7, 2012 Units:  English    Metric   Both
« Previous Day
Next Day »
Daily Weekly Monthly Yearly Custom
  High: Low: Average:
Temperature: 58.0 °F 50.7 °F 55.1 °F
Dew Point: 56.3 °F 44.1 °F 53.2 °F
Humidity: 96% 78% 93%
Wind Speed: 12.0mph 0.0mph 3.2mph
Wind Gust: 12.0mph - -
Wind- - South
Pressure: 30.10 in 29.96 in -
Precipitation: 0.38 in    
Historical Graphs
 
 
Tabular Data for January 7, 2012
Time Temperature Dew Point Pressure Wind Wind Speed Wind Gust Humidity Rainfall Rate (Hourly) Conditions
00:00 55.3 °F 51.8 °F 29.97 in SSE 4.0 mph 6.0 mph 88% 0.00 in
00:01 55.3 °F 51.8 °F 29.96 in SSE 3.0 mph 6.0 mph 88% 0.00 in
00:06 55.1 °F 51.6 °F 29.97 in SSW 2.0 mph 4.0 mph 88% 0.00 in
00:11 55.0 °F 51.5 °F 29.97 in SSE 4.0 mph 4.0 mph 88% 0.00 in
00:16 55.0 °F 51.5 °F 29.96 in SSE 3.0 mph 5.0 mph 88% 0.00 in
00:21 54.9 °F 51.7 °F 29.97 in SSE 3.0 mph 5.0 mph 89% 0.00 in
00:26 54.8 °F 51.6 °F 29.97 in SSE 4.0 mph 6.0 mph 89% 0.00 in
00:31 54.8 °F 51.6 °F 29.96 in SSE 4.0 mph 6.0 mph 89% 0.00 in
00:36 54.7 °F 51.5 °F 29.96 in South 3.0 mph 5.0 mph 89% 0.00 in
00:41 54.6 °F 51.4 °F 29.96 in SSE 4.0 mph 5.0 mph 89% 0.00 in
00:46 54.4 °F 51.2 °F 29.96 in South 3.0 mph 5.0 mph 89% 0.00 in
00:51 54.4 °F 51.2 °F 29.96 in South 5.0 mph 5.0 mph 89% 0.00 in
00:56 54.4 °F 51.2 °F 29.96 in SSW 3.0 mph 5.0 mph 89% 0.00 in
01:01 54.3 °F 51.1 °F 29.96 in SSW 4.0 mph 4.0 mph 89% 0.00 in
01:06 54.2 °F 51.0 °F 29.96 in South 2.0 mph 5.0 mph 89% 0.00 in
01:11 54.1 °F 51.2 °F 29.96 in SSW 1.0 mph 3.0 mph 90% 0.00 in
01:16 54.0 °F 51.1 °F 29.96 in SSE 1.0 mph 3.0 mph 90% 0.00 in
01:21 54.0 °F 51.1 °F 29.96 in SSE 2.0 mph 4.0 mph 90% 0.00 in
01:26 53.9 °F 51.3 °F 29.96 in SSE 2.0 mph 6.0 mph 91% 0.00 in
01:31 53.8 °F 50.9 °F 29.96 in SSE 2.0 mph 3.0 mph 90% 0.00 in
01:36 53.7 °F 51.1 °F 29.97 in SSE 3.0 mph 3.0 mph 91% 0.00 in
01:41 53.5 °F 50.9 °F 29.96 in SSE 2.0 mph 3.0 mph 91% 0.00 in
01:46 53.5 °F 50.9 °F 29.96 in South 2.0 mph 3.0 mph 91% 0.00 in
01:51 53.4 °F 50.8 °F 29.97 in SE 2.0 mph 3.0 mph 91% 0.00 in
01:56 53.4 °F 50.8 °F 29.96 in South 2.0 mph 3.0 mph 91% 0.00 in
02:01 53.4 °F 50.8 °F 29.96 in SSE 3.0 mph 3.0 mph 91% 0.00 in
02:06 53.0 °F 50.5 °F 29.96 in SSE 3.0 mph 4.0 mph 91% 0.00 in
02:11 52.9 °F 50.6 °F 29.96 in SSE 2.0 mph 3.0 mph 92% 0.00 in
02:16 52.9 °F 50.6 °F 29.96 in SSE 3.0 mph 3.0 mph 92% 0.00 in
02:21 52.8 °F 50.5 °F 29.97 in South 3.0 mph 4.0 mph 92% 0.00 in
02:27 52.8 °F 50.5 °F 29.97 in SSE 2.0 mph 3.0 mph 92% 0.00 in
02:32 52.8 °F 50.5 °F 29.97 in South 5.0 mph 5.0 mph 92% 0.00 in
02:37 52.8 °F 50.5 °F 29.97 in SSE 3.0 mph 3.0 mph 92% 0.00 in
02:42 52.7 °F 50.7 °F 29.97 in SSE 1.0 mph 3.0 mph 93% 0.00 in
02:47 52.8 °F 50.8 °F 29.97 in SW 2.0 mph 3.0 mph 93% 0.00 in
02:52 53.1 °F 51.1 °F 29.97 in South 2.0 mph 4.0 mph 93% 0.00 in
02:57 53.4 °F 51.4 °F 29.97 in SSE 3.0 mph 4.0 mph 93% 0.00 in
03:02 53.6 °F 51.3 °F 29.97 in SSE 2.0 mph 4.0 mph 92% 0.00 in
03:07 53.7 °F 51.4 °F 29.97 in South 2.0 mph 5.0 mph 92% 0.00 in
03:12 53.7 °F 51.4 °F 29.97 in SSE 2.0 mph 5.0 mph 92% 0.00 in
03:17 53.9 °F 51.9 °F 29.97 in South 2.0 mph 6.0 mph 93% 0.00 in
03:22 54.1 °F 51.8 °F 29.97 in SSW 3.0 mph 5.0 mph 92% 0.00 in
03:27 54.2 °F 51.9 °F 29.97 in SSW 4.0 mph 7.0 mph 92% 0.00 in
03:32 54.3 °F 52.0 °F 29.97 in SSW 1.0 mph 7.0 mph 92% 0.00 in
03:37 54.2 °F 51.9 °F 29.97 in SSE 4.0 mph 5.0 mph 92% 0.00 in
03:42 54.2 °F 51.9 °F 29.97 in SW 5.0 mph 6.0 mph 92% 0.00 in
03:47 54.3 °F 52.0 °F 29.96 in SW 4.0 mph 5.0 mph 92% 0.00 in
03:52 54.6 °F 52.6 °F 29.96 in South 2.0 mph 4.0 mph 93% 0.00 in
03:57 54.7 °F 52.4 °F 29.96 in SW 2.0 mph 5.0 mph 92% 0.00 in
04:02 54.6 °F 52.3 °F 29.96 in SW 4.0 mph 6.0 mph 92% 0.00 in
04:07 54.6 °F 52.3 °F 29.96 in SW 4.0 mph 7.0 mph 92% 0.00 in
04:12 54.7 °F 52.7 °F 29.96 in SW 2.0 mph 6.0 mph 93% 0.00 in
04:17 54.8 °F 52.5 °F 29.96 in South 2.0 mph 8.0 mph 92% 0.00 in
04:22 54.9 °F 52.9 °F 29.96 in SW 5.0 mph 6.0 mph 93% 0.00 in
04:28 54.8 °F 52.8 °F 29.96 in SW 4.0 mph 4.0 mph 93% 0.00 in
04:33 55.0 °F 53.0 °F 29.96 in SW 5.0 mph 5.0 mph 93% 0.00 in
04:38 55.3 °F 53.3 °F 29.96 in SSW 3.0 mph 8.0 mph 93% 0.00 in
04:43 55.6 °F 53.6 °F 29.96 in SSW 4.0 mph 8.0 mph 93% 0.00 in
04:48 55.9 °F 53.9 °F 29.96 in SSW 4.0 mph 8.0 mph 93% 0.00 in
04:53 56.1 °F 54.1 °F 29.96 in WSW 4.0 mph 8.0 mph 93% 0.00 in
04:58 56.3 °F 54.0 °F 29.96 in SW 7.0 mph 9.0 mph 92% 0.00 in
05:03 56.5 °F 54.5 °F 29.96 in SW 6.0 mph 11.0 mph 93% 0.00 in
05:08 56.5 °F 54.5 °F 29.96 in SW 8.0 mph 8.0 mph 93% 0.18 in
05:13 56.6 °F 54.6 °F 29.96 in SW 4.0 mph 7.0 mph 93% 0.06 in
05:18 56.5 °F 54.5 °F 29.96 in WSW 5.0 mph 6.0 mph 93% 0.04 in
05:23 56.5 °F 54.5 °F 29.96 in WSW 3.0 mph 8.0 mph 93% 0.00 in
05:28 56.5 °F 54.5 °F 29.96 in SW 6.0 mph 7.0 mph 93% 0.00 in
05:33 56.4 °F 54.4 °F 29.96 in SW 2.0 mph 5.0 mph 93% 0.00 in
05:38 56.4 °F 54.4 °F 29.96 in SW 4.0 mph 5.0 mph 93% 0.00 in
05:43 56.5 °F 54.5 °F 29.96 in South 3.0 mph 7.0 mph 93% 0.00 in
05:48 56.6 °F 54.9 °F 29.96 in SW 6.0 mph 6.0 mph 94% 0.00 in
05:53 56.7 °F 54.7 °F 29.96 in SW 6.0 mph 8.0 mph 93% 0.00 in
05:58 56.8 °F 54.8 °F 29.96 in SSW 5.0 mph 8.0 mph 93% 0.00 in
06:03 56.8 °F 54.8 °F 29.96 in SW 4.0 mph 8.0 mph 93% 0.00 in
06:08 56.7 °F 54.7 °F 29.96 in WSW 5.0 mph 8.0 mph 93% 0.00 in
06:13 56.7 °F 54.7 °F 29.97 in WSW 2.0 mph 6.0 mph 93% 0.00 in
06:18 56.7 °F 54.7 °F 29.97 in WSW 2.0 mph 6.0 mph 93% 0.00 in
06:23 56.7 °F 54.7 °F 29.97 in SW 3.0 mph 5.0 mph 93% 0.00 in
06:28 56.7 °F 54.7 °F 29.97 in WSW 3.0 mph 4.0 mph 93% 0.00 in
06:33 56.7 °F 54.7 °F 29.97 in WSW 2.0 mph 4.0 mph 93% 0.00 in
06:38 56.7 °F 55.0 °F 29.97 in WSW 2.0 mph 4.0 mph 94% 0.00 in
06:43 56.7 °F 55.0 °F 29.97 in SW 6.0 mph 6.0 mph 94% 0.00 in
06:48 56.8 °F 55.1 °F 29.97 in SW 5.0 mph 6.0 mph 94% 0.00 in
06:53 56.8 °F 55.1 °F 29.97 in SSW 3.0 mph 6.0 mph 94% 0.00 in
06:58 56.8 °F 55.1 °F 29.97 in SW 5.0 mph 7.0 mph 94% 0.00 in
07:03 56.9 °F 54.9 °F 29.97 in SW 6.0 mph 7.0 mph 93% 0.00 in
07:08 56.9 °F 55.2 °F 29.97 in SSW 7.0 mph 8.0 mph 94% 0.00 in
07:13 56.9 °F 55.2 °F 29.97 in SSW 6.0 mph 9.0 mph 94% 0.00 in
07:18 56.8 °F 55.1 °F 29.98 in SW 3.0 mph 7.0 mph 94% 0.00 in
07:23 56.8 °F 55.1 °F 29.98 in SW 3.0 mph 8.0 mph 94% 0.00 in
07:28 56.8 °F 54.8 °F 29.98 in SW 5.0 mph 8.0 mph 93% 0.00 in
07:33 56.8 °F 54.8 °F 29.98 in SW 4.0 mph 8.0 mph 93% 0.00 in
07:39 56.7 °F 55.0 °F 29.98 in SW 4.0 mph 7.0 mph 94% 0.00 in
07:44 56.6 °F 54.9 °F 29.98 in SW 6.0 mph 6.0 mph 94% 0.00 in
07:49 56.5 °F 54.8 °F 29.98 in SSW 5.0 mph 6.0 mph 94% 0.00 in
07:54 56.4 °F 54.7 °F 29.98 in SW 3.0 mph 5.0 mph 94% 0.00 in
07:59 56.3 °F 54.6 °F 29.98 in SW 3.0 mph 6.0 mph 94% 0.04 in
08:04 56.3 °F 54.6 °F 29.98 in WSW 4.0 mph 6.0 mph 94% 0.08 in
08:09 56.3 °F 54.9 °F 29.98 in SW 1.0 mph 5.0 mph 95% 0.11 in
08:14 56.2 °F 54.8 °F 29.98 in West 2.0 mph 4.0 mph 95% 0.09 in
08:19 56.2 °F 54.8 °F 29.99 in WNW 2.0 mph 5.0 mph 95% 0.05 in
08:24 56.1 °F 54.7 °F 29.99 in WSW 3.0 mph 3.0 mph 95% 0.04 in
08:29 56.0 °F 54.6 °F 29.99 in WSW 1.0 mph 4.0 mph 95% 0.00 in
08:34 56.1 °F 54.7 °F 29.99 in SW 2.0 mph 3.0 mph 95% 0.00 in
08:39 56.1 °F 54.7 °F 29.99 in WSW 3.0 mph 5.0 mph 95% 0.00 in
08:44 56.1 °F 54.7 °F 30.00 in SW 2.0 mph 2.0 mph 95% 0.00 in
08:49 56.1 °F 54.7 °F 30.00 in SW 3.0 mph 3.0 mph 95% 0.00 in
08:54 56.1 °F 54.7 °F 30.00 in NW 2.0 mph 3.0 mph 95% 0.00 in
08:59 56.0 °F 54.6 °F 30.00 in West 2.0 mph 2.0 mph 95% 0.00 in
09:04 56.1 °F 54.7 °F 30.00 in WSW 1.0 mph 2.0 mph 95% 0.00 in
09:09 56.1 °F 54.7 °F 30.01 in SW 3.0 mph 4.0 mph 95% 0.00 in
09:14 56.0 °F 54.6 °F 30.01 in SW 1.0 mph 4.0 mph 95% 0.00 in
09:19 55.9 °F 54.5 °F 30.02 in SW 5.0 mph 5.0 mph 95% 0.00 in
09:24 56.0 °F 54.6 °F 30.02 in SW 4.0 mph 5.0 mph 95% 0.00 in
09:29 56.0 °F 54.6 °F 30.02 in WSW 7.0 mph 9.0 mph 95% 0.00 in
09:34 56.0 °F 54.6 °F 30.02 in WSW 4.0 mph 7.0 mph 95% 0.00 in
09:39 56.0 °F 54.6 °F 30.01 in WSW 3.0 mph 6.0 mph 95% 0.07 in
09:44 56.0 °F 54.6 °F 30.01 in West 1.0 mph 5.0 mph 95% 0.17 in
09:49 55.9 °F 54.5 °F 30.01 in WSW 3.0 mph 6.0 mph 95% 0.10 in
09:54 56.0 °F 54.3 °F 30.01 in WSW 2.0 mph 7.0 mph 94% 0.05 in
09:59 56.1 °F 54.4 °F 30.01 in WSW 3.0 mph 4.0 mph 94% 0.04 in
10:04 56.2 °F 54.5 °F 30.01 in West 2.0 mph 3.0 mph 94% 0.00 in
10:09 56.3 °F 54.6 °F 30.01 in WSW 1.0 mph 3.0 mph 94% 0.00 in
10:14 56.4 °F 54.7 °F 30.01 in WSW 2.0 mph 4.0 mph 94% 0.00 in
10:19 56.9 °F 55.5 °F 30.02 in WSW 3.0 mph 3.0 mph 95% 0.00 in
10:24 57.3 °F 55.6 °F 30.02 in WSW 6.0 mph 8.0 mph 94% 0.00 in
10:29 57.6 °F 55.9 °F 30.03 in WSW 5.0 mph 8.0 mph 94% 0.00 in
10:34 57.6 °F 55.6 °F 30.03 in WSW 4.0 mph 7.0 mph 93% 0.00 in
10:39 57.7 °F 55.7 °F 30.03 in SW 6.0 mph 6.0 mph 93% 0.00 in
10:44 57.6 °F 55.6 °F 30.03 in SSW 4.0 mph 6.0 mph 93% 0.00 in
10:49 57.8 °F 55.8 °F 30.03 in WSW 4.0 mph 7.0 mph 93% 0.00 in
10:54 58.0 °F 56.3 °F 30.03 in WSW 4.0 mph 7.0 mph 94% 0.00 in
10:59 58.0 °F 56.0 °F 30.03 in SW 8.0 mph 8.0 mph 93% 0.00 in
11:04 58.0 °F 56.0 °F 30.03 in SW 4.0 mph 8.0 mph 93% 0.00 in
11:09 57.9 °F 55.9 °F 30.04 in WSW 5.0 mph 8.0 mph 93% 0.00 in
11:14 57.9 °F 55.9 °F 30.04 in SW 6.0 mph 7.0 mph 93% 0.00 in
11:19 57.8 °F 56.1 °F 30.04 in SW 6.0 mph 8.0 mph 94% 0.00 in
11:24 57.6 °F 55.9 °F 30.04 in WSW 6.0 mph 7.0 mph 94% 0.00 in
11:29 57.5 °F 55.8 °F 30.04 in SW 2.0 mph 9.0 mph 94% 0.00 in
11:34 57.4 °F 55.7 °F 30.04 in WSW 4.0 mph 4.0 mph 94% 0.23 in
11:39 57.3 °F 55.6 °F 30.04 in WSW 6.0 mph 7.0 mph 94% 0.11 in
11:44 57.1 °F 55.4 °F 30.04 in WSW 5.0 mph 10.0 mph 94% 0.06 in
11:49 56.9 °F 55.2 °F 30.04 in WSW 5.0 mph 9.0 mph 94% 0.05 in
11:55 56.7 °F 55.3 °F 30.04 in SW 5.0 mph 8.0 mph 95% 0.07 in
12:00 56.6 °F 55.2 °F 30.04 in WSW 2.0 mph 6.0 mph 95% 0.15 in
12:05 56.6 °F 55.2 °F 30.04 in WSW 4.0 mph 5.0 mph 95% 0.15 in
12:10 56.5 °F 55.1 °F 30.03 in WSW 5.0 mph 6.0 mph 95% 0.30 in
12:15 56.5 °F 55.1 °F 30.03 in West 3.0 mph 6.0 mph 95% 0.19 in
12:20 56.5 °F 55.1 °F 30.03 in SW 4.0 mph 6.0 mph 95% 0.13 in
12:25 56.5 °F 55.1 °F 30.03 in SW 4.0 mph 6.0 mph 95% 0.09 in
12:30 56.5 °F 55.1 °F 30.02 in SW 4.0 mph 5.0 mph 95% 0.08 in
12:35 56.7 °F 55.3 °F 30.03 in SSW 3.0 mph 6.0 mph 95% 0.07 in
12:36 56.7 °F 55.3 °F 30.03 in SSW 4.0 mph 5.0 mph 95% 0.07 in
12:41 56.7 °F 55.3 °F 30.02 in SW 3.0 mph 6.0 mph 95% 0.06 in
12:46 56.7 °F 55.3 °F 30.03 in SW 5.0 mph 7.0 mph 95% 0.04 in
12:51 56.6 °F 55.2 °F 30.03 in SW 3.0 mph 6.0 mph 95% 0.00 in
12:56 56.6 °F 55.2 °F 30.02 in WSW 4.0 mph 7.0 mph 95% 0.00 in
13:01 56.6 °F 55.2 °F 30.02 in WSW 5.0 mph 5.0 mph 95% 0.10 in
13:06 56.6 °F 55.2 °F 30.02 in SW 6.0 mph 7.0 mph 95% 0.14 in
13:11 56.7 °F 55.3 °F 30.02 in SW 5.0 mph 5.0 mph 95% 0.07 in
13:16 56.6 °F 55.2 °F 30.02 in WSW 6.0 mph 8.0 mph 95% 0.05 in
13:22 56.5 °F 55.1 °F 30.02 in SSW 6.0 mph 10.0 mph 95% 0.00 in
13:27 56.5 °F 55.1 °F 30.02 in SSW 4.0 mph 9.0 mph 95% 0.00 in
13:32 56.3 °F 54.9 °F 30.02 in SW 12.0 mph 12.0 mph 95% 0.18 in
13:37 56.1 °F 54.4 °F 30.01 in SSW 4.0 mph 12.0 mph 94% 0.11 in
13:42 56.0 °F 54.3 °F 30.01 in WSW 8.0 mph 8.0 mph 94% 0.11 in
13:47 56.0 °F 54.3 °F 30.01 in WSW 6.0 mph 12.0 mph 94% 0.06 in
13:52 55.9 °F 54.2 °F 30.01 in WSW 10.0 mph 10.0 mph 94% 0.06 in
13:57 55.9 °F 54.2 °F 30.00 in WSW 4.0 mph 6.0 mph 94% 0.09 in
14:02 56.0 °F 54.3 °F 30.00 in SW 2.0 mph 6.0 mph 94% 0.07 in
14:07 56.1 °F 54.7 °F 29.99 in WSW 3.0 mph 4.0 mph 95% 0.04 in
14:12 56.2 °F 54.5 °F 29.99 in WSW 2.0 mph 4.0 mph 94% 0.00 in
14:17 56.5 °F 55.1 °F 30.00 in WSW 2.0 mph 3.0 mph 95% 0.00 in
14:22 56.5 °F 54.8 °F 30.00 in West 2.0 mph 5.0 mph 94% 0.00 in
14:27 56.6 °F 54.9 °F 30.00 in WSW 5.0 mph 5.0 mph 94% 0.00 in
14:32 56.6 °F 54.9 °F 30.00 in SW 2.0 mph 4.0 mph 94% 0.00 in
14:37 56.6 °F 54.9 °F 30.00 in WSW 3.0 mph 6.0 mph 94% 0.00 in
14:42 56.7 °F 55.0 °F 30.00 in SW 3.0 mph 4.0 mph 94% 0.00 in
14:47 56.7 °F 55.0 °F 30.00 in SW 3.0 mph 3.0 mph 94% 0.00 in
14:52 56.7 °F 55.0 °F 30.00 in SSW 4.0 mph 4.0 mph 94% 0.00 in
14:57 56.5 °F 54.8 °F 30.00 in SW 6.0 mph 7.0 mph 94% 0.00 in
15:02 56.3 °F 54.6 °F 30.00 in SW 2.0 mph 5.0 mph 94% 0.00 in
15:07 56.2 °F 54.5 °F 30.00 in SW 3.0 mph 4.0 mph 94% 0.22 in
15:12 56.1 °F 54.4 °F 30.00 in SW 4.0 mph 4.0 mph 94% 0.09 in
15:17 56.0 °F 54.3 °F 30.00 in WSW 4.0 mph 6.0 mph 94% 0.07 in
15:23 56.0 °F 54.3 °F 30.01 in SW 5.0 mph 6.0 mph 94% 0.07 in
15:28 56.0 °F 54.6 °F 30.00 in SSW 3.0 mph 5.0 mph 95% 0.04 in
15:33 55.9 °F 54.2 °F 30.00 in SW 2.0 mph 5.0 mph 94% 0.00 in
15:38 55.9 °F 54.2 °F 30.00 in West 1.0 mph 3.0 mph 94% 0.00 in
15:43 55.9 °F 54.2 °F 30.00 in SW 3.0 mph 3.0 mph 94% 0.00 in
15:48 56.0 °F 54.3 °F 30.01 in WSW 5.0 mph 5.0 mph 94% 0.00 in
15:53 56.1 °F 54.4 °F 30.01 in SW 3.0 mph 5.0 mph 94% 0.00 in
15:58 56.3 °F 54.9 °F 30.02 in SSW 2.0 mph 5.0 mph 95% 0.00 in
16:03 56.2 °F 54.8 °F 30.02 in SW 5.0 mph 6.0 mph 95% 0.00 in
16:08 56.2 °F 54.8 °F 30.02 in WSW 5.0 mph 6.0 mph 95% 0.00 in
16:13 56.0 °F 54.6 °F 30.02 in SW 4.0 mph 8.0 mph 95% 0.00 in
16:18 55.8 °F 54.4 °F 30.02 in SW 7.0 mph 7.0 mph 95% 0.00 in
16:24 55.7 °F 54.3 °F 30.02 in WSW 6.0 mph 6.0 mph 95% 0.00 in
16:29 55.6 °F 54.2 °F 30.02 in WSW 6.0 mph 7.0 mph 95% 0.00 in
16:34 55.5 °F 54.1 °F 30.02 in SW 1.0 mph 4.0 mph 95% 0.00 in
16:39 55.5 °F 54.1 °F 30.02 in WSW 3.0 mph 5.0 mph 95% 0.00 in
16:44 55.4 °F 54.0 °F 30.02 in SW 3.0 mph 4.0 mph 95% 0.00 in
16:49 55.4 °F 54.0 °F 30.02 in SW 1.0 mph 3.0 mph 95% 0.00 in
16:54 55.3 °F 53.9 °F 30.02 in WSW 3.0 mph 3.0 mph 95% 0.00 in
16:59 55.3 °F 53.9 °F 30.02 in WSW 1.0 mph 2.0 mph 95% 0.00 in
17:04 55.2 °F 53.8 °F 30.02 in Calm   1.0 mph 95% 0.00 in
17:09 55.2 °F 53.8 °F 30.02 in WSW 1.0 mph 1.0 mph 95% 0.00 in
17:14 55.1 °F 53.7 °F 30.02 in Calm   2.0 mph 95% 0.00 in
17:19 55.1 °F 53.7 °F 30.02 in SSE 1.0 mph 1.0 mph 95% 0.00 in
17:24 55.0 °F 53.6 °F 30.02 in South 2.0 mph 2.0 mph 95% 0.00 in
17:29 54.9 °F 53.5 °F 30.02 in Calm   2.0 mph 95% 0.00 in
17:34 54.7 °F 53.3 °F 30.03 in Calm     95% 0.00 in
17:39 54.6 °F 53.2 °F 30.03 in SW 1.0 mph 1.0 mph 95% 0.00 in
17:44 54.6 °F 53.2 °F 30.03 in SW 2.0 mph 2.0 mph 95% 0.00 in
17:49 54.4 °F 53.0 °F 30.03 in SW 1.0 mph 2.0 mph 95% 0.00 in
17:54 54.2 °F 52.8 °F 30.03 in SW 2.0 mph 2.0 mph 95% 0.00 in
17:59 54.2 °F 53.1 °F 30.03 in Calm   1.0 mph 96% 0.00 in
18:04 54.1 °F 53.0 °F 30.03 in Calm     96% 0.00 in
18:09 54.1 °F 53.0 °F 30.03 in Calm     96% 0.00 in
18:15 54.1 °F 53.0 °F 30.04 in Calm     96% 0.00 in
18:20 54.0 °F 52.9 °F 30.04 in Calm     96% 0.00 in
18:25 54.1 °F 53.0 °F 30.04 in Calm   1.0 mph 96% 0.00 in
18:30 53.9 °F 52.8 °F 30.04 in SSW 1.0 mph 1.0 mph 96% 0.00 in
18:35 53.8 °F 52.7 °F 30.04 in SSW 1.0 mph 1.0 mph 96% 0.00 in
18:40 53.7 °F 52.6 °F 30.04 in SSE 1.0 mph 1.0 mph 96% 0.00 in
18:45 53.5 °F 52.4 °F 30.05 in SSE 1.0 mph 1.0 mph 96% 0.00 in
18:47 53.5 °F 52.4 °F 30.05 in SSE 1.0 mph 2.0 mph 96% 0.00 in
18:52 53.6 °F 52.5 °F 30.05 in SSE 1.0 mph 1.0 mph 96% 0.00 in
18:57 53.7 °F 52.6 °F 30.05 in SSE 1.0 mph 1.0 mph 96% 0.00 in
19:02 53.7 °F 52.6 °F 30.05 in SW 1.0 mph 1.0 mph 96% 0.00 in
19:07 53.6 °F 52.5 °F 30.05 in Calm     96% 0.00 in
19:12 53.5 °F 52.4 °F 30.05 in Calm     96% 0.00 in
19:17 53.5 °F 52.4 °F 30.05 in Calm     96% 0.00 in
19:22 53.6 °F 52.5 °F 30.05 in Calm     96% 0.00 in
19:27 53.7 °F 52.6 °F 30.06 in Calm     96% 0.00 in
19:32 53.7 °F 52.6 °F 30.05 in Calm     96% 0.00 in
19:38 53.9 °F 52.8 °F 30.05 in North 2.0 mph 2.0 mph 96% 0.00 in
19:43 53.8 °F 52.7 °F 30.05 in North 3.0 mph 4.0 mph 96% 0.00 in
19:48 53.9 °F 52.8 °F 30.05 in NNE 3.0 mph 4.0 mph 96% 0.00 in
19:53 53.9 °F 52.8 °F 30.05 in NNE 2.0 mph 2.0 mph 96% 0.00 in
19:58 54.0 °F 52.9 °F 30.05 in Calm   2.0 mph 96% 0.00 in
20:03 54.0 °F 52.9 °F 30.05 in Calm   1.0 mph 96% 0.00 in
20:08 53.9 °F 52.8 °F 30.05 in NNE 2.0 mph 2.0 mph 96% 0.00 in
20:13 53.8 °F 52.7 °F 30.06 in North 2.0 mph 2.0 mph 96% 0.00 in
20:18 53.8 °F 52.7 °F 30.06 in Calm   1.0 mph 96% 0.00 in
20:23 53.8 °F 52.7 °F 30.06 in NNE 3.0 mph 3.0 mph 96% 0.00 in
20:28 53.8 °F 52.7 °F 30.07 in North 1.0 mph 2.0 mph 96% 0.00 in
20:33 53.7 °F 52.6 °F 30.07 in NE 4.0 mph 4.0 mph 96% 0.00 in
20:38 53.8 °F 52.7 °F 30.07 in NNE 2.0 mph 3.0 mph 96% 0.00 in
20:43 53.7 °F 52.6 °F 30.07 in North 2.0 mph 2.0 mph 96% 0.00 in
20:48 53.7 °F 52.6 °F 30.07 in NNE 2.0 mph 3.0 mph 96% 0.00 in
20:53 53.6 °F 52.5 °F 30.07 in NNE 2.0 mph 5.0 mph 96% 0.00 in
20:58 53.6 °F 52.5 °F 30.07 in NE 3.0 mph 3.0 mph 96% 0.00 in
21:03 53.4 °F 52.3 °F 30.07 in NE 2.0 mph 4.0 mph 96% 0.00 in
21:08 53.4 °F 52.3 °F 30.07 in NNE 1.0 mph 5.0 mph 96% 0.00 in
21:13 53.4 °F 52.3 °F 30.07 in NNE 3.0 mph 3.0 mph 96% 0.00 in
21:18 53.3 °F 52.2 °F 30.07 in NNE 4.0 mph 4.0 mph 96% 0.00 in
21:23 53.3 °F 52.2 °F 30.07 in NNE 2.0 mph 5.0 mph 96% 0.00 in
21:29 53.2 °F 51.8 °F 30.08 in NNE 2.0 mph 5.0 mph 95% 0.00 in
21:34 53.2 °F 51.8 °F 30.08 in North 1.0 mph 1.0 mph 95% 0.00 in
21:39 53.2 °F 51.8 °F 30.08 in NNE 1.0 mph 2.0 mph 95% 0.00 in
21:44 53.2 °F 51.8 °F 30.08 in NE 2.0 mph 2.0 mph 95% 0.00 in
21:49 53.1 °F 51.7 °F 30.08 in NE 2.0 mph 4.0 mph 95% 0.00 in
21:54 53.1 °F 51.4 °F 30.08 in NE 4.0 mph 5.0 mph 94% 0.00 in
21:59 53.2 °F 51.5 °F 30.08 in NNE 2.0 mph 3.0 mph 94% 0.00 in
22:05 53.0 °F 51.0 °F 30.09 in ENE 5.0 mph 5.0 mph 93% 0.00 in
22:10 53.0 °F 50.7 °F 30.09 in ENE 1.0 mph 4.0 mph 92% 0.00 in
22:15 53.0 °F 50.5 °F 30.09 in NNE 3.0 mph 6.0 mph 91% 0.00 in
22:21 52.9 °F 50.0 °F 30.08 in NE 3.0 mph 5.0 mph 90% 0.00 in
22:26 52.8 °F 50.2 °F 30.09 in NNE 5.0 mph 6.0 mph 91% 0.00 in
22:32 52.7 °F 49.8 °F 30.09 in NE 2.0 mph 6.0 mph 90% 0.00 in
22:37 52.6 °F 49.8 °F 30.09 in NE 6.0 mph 6.0 mph 90% 0.00 in
22:42 52.5 °F 49.7 °F 30.09 in NE 3.0 mph 7.0 mph 90% 0.00 in
22:47 52.6 °F 49.5 °F 30.09 in NE 4.0 mph 7.0 mph 89% 0.00 in
22:52 52.6 °F 49.2 °F 30.09 in NNE 4.0 mph 6.0 mph 88% 0.00 in
22:57 52.4 °F 49.3 °F 30.09 in North 4.0 mph 5.0 mph 89% 0.00 in
23:02 52.3 °F 48.9 °F 30.09 in NE 4.0 mph 7.0 mph 88% 0.00 in
23:07 52.2 °F 48.5 °F 30.09 in NE 3.0 mph 6.0 mph 87% 0.00 in
23:12 52.2 °F 48.2 °F 30.09 in NE 3.0 mph 7.0 mph 86% 0.00 in
23:18 52.0 °F 48.0 °F 30.09 in NNW 3.0 mph 7.0 mph 86% 0.00 in
23:23 51.9 °F 48.2 °F 30.09 in NNE 6.0 mph 9.0 mph 87% 0.00 in
23:28 51.8 °F 48.1 °F 30.10 in NE 8.0 mph 10.0 mph 87% 0.00 in
23:33 51.8 °F 47.8 °F 30.10 in NNE 2.0 mph 7.0 mph 86% 0.00 in
23:38 51.6 °F 47.9 °F 30.10 in NNE 3.0 mph 6.0 mph 87% 0.00 in
23:43 51.3 °F 47.0 °F 30.10 in North 4.0 mph 7.0 mph 85% 0.00 in
23:48 51.1 °F 45.2 °F 30.10 in NNE 6.0 mph 8.0 mph 80% 0.00 in
23:53 50.8 °F 44.9 °F 30.10 in NNE 4.0 mph 6.0 mph 80% 0.00 in
23:58 50.7 °F 44.1 °F 30.10 in NE 6.0 mph 8.0 mph 78% 0.00 in
Compliments of Weather Underground